sensor_id;sensor_type;location;lat;lon;timestamp;temperature;humidity
15341;DHT22;7770;52.158;5.372;2024-03-06T00:01:25;7.10;99.90
15341;DHT22;7770;52.158;5.372;2024-03-06T00:04:11;7.10;99.90
15341;DHT22;7770;52.158;5.372;2024-03-06T00:06:57;7.10;99.90
15341;DHT22;7770;52.158;5.372;2024-03-06T00:09:43;7.20;99.90
15341;DHT22;7770;52.158;5.372;2024-03-06T00:12:30;7.20;99.90
15341;DHT22;7770;52.158;5.372;2024-03-06T00:15:16;7.10;99.90
15341;DHT22;7770;52.158;5.372;2024-03-06T00:18:02;7.10;99.90
15341;DHT22;7770;52.158;5.372;2024-03-06T00:20:49;7.10;99.90
15341;DHT22;7770;52.158;5.372;2024-03-06T00:23:35;7.10;99.90
15341;DHT22;7770;52.158;5.372;2024-03-06T00:26:23;7.10;99.90
15341;DHT22;7770;52.158;5.372;2024-03-06T00:29:09;7.10;99.90
15341;DHT22;7770;52.158;5.372;2024-03-06T00:31:55;7.10;99.90
15341;DHT22;7770;52.158;5.372;2024-03-06T00:34:41;7.10;99.90
15341;DHT22;7770;52.158;5.372;2024-03-06T00:37:27;7.10;99.90
15341;DHT22;7770;52.158;5.372;2024-03-06T00:40:13;7.10;99.90
15341;DHT22;7770;52.158;5.372;2024-03-06T00:42:59;7.10;99.90
15341;DHT22;7770;52.158;5.372;2024-03-06T00:45:45;7.10;99.90
15341;DHT22;7770;52.158;5.372;2024-03-06T00:48:31;7.00;99.90
15341;DHT22;7770;52.158;5.372;2024-03-06T00:51:17;7.10;99.90
15341;DHT22;7770;52.158;5.372;2024-03-06T00:54:04;7.00;99.90
15341;DHT22;7770;52.158;5.372;2024-03-06T00:56:50;7.10;99.90
15341;DHT22;7770;52.158;5.372;2024-03-06T00:59:36;7.10;99.90
15341;DHT22;7770;52.158;5.372;2024-03-06T01:02:22;7.10;99.90
15341;DHT22;7770;52.158;5.372;2024-03-06T01:05:08;7.10;99.90
15341;DHT22;7770;52.158;5.372;2024-03-06T01:07:55;7.00;99.90
15341;DHT22;7770;52.158;5.372;2024-03-06T01:10:42;7.00;99.90
15341;DHT22;7770;52.158;5.372;2024-03-06T01:13:28;7.00;99.90
15341;DHT22;7770;52.158;5.372;2024-03-06T01:16:14;7.00;99.90
15341;DHT22;7770;52.158;5.372;2024-03-06T01:19:00;7.00;99.90
15341;DHT22;7770;52.158;5.372;2024-03-06T01:21:47;7.00;99.90
15341;DHT22;7770;52.158;5.372;2024-03-06T01:24:34;7.00;99.90
15341;DHT22;7770;52.158;5.372;2024-03-06T01:27:20;6.90;99.90
15341;DHT22;7770;52.158;5.372;2024-03-06T01:30:06;7.00;99.90
15341;DHT22;7770;52.158;5.372;2024-03-06T01:32:53;6.90;99.90
15341;DHT22;7770;52.158;5.372;2024-03-06T01:35:39;6.90;99.90
15341;DHT22;7770;52.158;5.372;2024-03-06T01:38:25;6.90;99.90
15341;DHT22;7770;52.158;5.372;2024-03-06T01:41:11;6.90;99.90
15341;DHT22;7770;52.158;5.372;2024-03-06T01:43:57;6.90;99.90
15341;DHT22;7770;52.158;5.372;2024-03-06T01:46:44;6.90;99.90
15341;DHT22;7770;52.158;5.372;2024-03-06T01:49:31;6.90;99.90
15341;DHT22;7770;52.158;5.372;2024-03-06T01:52:18;6.90;99.90
15341;DHT22;7770;52.158;5.372;2024-03-06T01:55:07;6.90;99.90
15341;DHT22;7770;52.158;5.372;2024-03-06T01:57:53;6.80;99.90
15341;DHT22;7770;52.158;5.372;2024-03-06T02:00:40;6.80;99.90
15341;DHT22;7770;52.158;5.372;2024-03-06T02:03:27;6.80;99.90
15341;DHT22;7770;52.158;5.372;2024-03-06T02:06:15;6.70;99.90
15341;DHT22;7770;52.158;5.372;2024-03-06T02:09:05;6.60;99.90
15341;DHT22;7770;52.158;5.372;2024-03-06T02:11:53;6.50;99.90
15341;DHT22;7770;52.158;5.372;2024-03-06T02:14:40;6.40;99.90
15341;DHT22;7770;52.158;5.372;2024-03-06T02:17:26;6.30;99.90
15341;DHT22;7770;52.158;5.372;2024-03-06T02:20:15;6.20;99.90
15341;DHT22;7770;52.158;5.372;2024-03-06T02:23:01;6.20;99.90
15341;DHT22;7770;52.158;5.372;2024-03-06T02:25:48;6.20;99.90
15341;DHT22;7770;52.158;5.372;2024-03-06T02:28:34;6.10;99.90
15341;DHT22;7770;52.158;5.372;2024-03-06T02:31:21;6.10;99.90
15341;DHT22;7770;52.158;5.372;2024-03-06T02:34:08;6.10;99.90
15341;DHT22;7770;52.158;5.372;2024-03-06T02:36:55;6.10;99.90
15341;DHT22;7770;52.158;5.372;2024-03-06T02:39:42;6.10;99.90
15341;DHT22;7770;52.158;5.372;2024-03-06T02:42:28;6.10;99.90
15341;DHT22;7770;52.158;5.372;2024-03-06T02:45:14;6.20;99.90
15341;DHT22;7770;52.158;5.372;2024-03-06T02:48:00;6.20;99.90
15341;DHT22;7770;52.158;5.372;2024-03-06T02:50:46;6.20;99.90
15341;DHT22;7770;52.158;5.372;2024-03-06T02:53:33;6.30;99.90
15341;DHT22;7770;52.158;5.372;2024-03-06T02:56:19;6.20;99.90
15341;DHT22;7770;52.158;5.372;2024-03-06T02:59:05;6.20;99.90
15341;DHT22;7770;52.158;5.372;2024-03-06T03:01:51;6.20;99.90
15341;DHT22;7770;52.158;5.372;2024-03-06T03:04:37;6.10;99.90
15341;DHT22;7770;52.158;5.372;2024-03-06T03:07:23;6.00;99.90
15341;DHT22;7770;52.158;5.372;2024-03-06T03:10:10;6.00;99.90
15341;DHT22;7770;52.158;5.372;2024-03-06T03:12:56;5.90;99.90
15341;DHT22;7770;52.158;5.372;2024-03-06T03:15:42;6.00;99.90
15341;DHT22;7770;52.158;5.372;2024-03-06T03:18:28;6.00;99.90
15341;DHT22;7770;52.158;5.372;2024-03-06T03:21:15;6.10;99.90
15341;DHT22;7770;52.158;5.372;2024-03-06T03:24:01;6.10;99.90
15341;DHT22;7770;52.158;5.372;2024-03-06T03:26:47;6.10;99.90
15341;DHT22;7770;52.158;5.372;2024-03-06T03:29:33;6.10;99.90
15341;DHT22;7770;52.158;5.372;2024-03-06T03:32:19;6.10;99.90
15341;DHT22;7770;52.158;5.372;2024-03-06T03:35:06;6.10;99.90
15341;DHT22;7770;52.158;5.372;2024-03-06T03:37:52;6.00;99.90
15341;DHT22;7770;52.158;5.372;2024-03-06T03:40:38;6.00;99.90
15341;DHT22;7770;52.158;5.372;2024-03-06T03:43:24;6.00;99.90
15341;DHT22;7770;52.158;5.372;2024-03-06T03:46:10;6.10;99.90
15341;DHT22;7770;52.158;5.372;2024-03-06T03:48:56;6.10;99.90
15341;DHT22;7770;52.158;5.372;2024-03-06T03:51:42;6.10;99.90
15341;DHT22;7770;52.158;5.372;2024-03-06T03:54:28;6.20;99.90
15341;DHT22;7770;52.158;5.372;2024-03-06T03:57:14;6.20;99.90
15341;DHT22;7770;52.158;5.372;2024-03-06T04:00:00;6.10;99.90
15341;DHT22;7770;52.158;5.372;2024-03-06T04:02:47;6.10;99.90
15341;DHT22;7770;52.158;5.372;2024-03-06T04:05:33;6.00;99.90
15341;DHT22;7770;52.158;5.372;2024-03-06T04:08:19;6.00;99.90
15341;DHT22;7770;52.158;5.372;2024-03-06T04:11:05;5.90;99.90
15341;DHT22;7770;52.158;5.372;2024-03-06T04:13:52;5.80;99.90
15341;DHT22;7770;52.158;5.372;2024-03-06T04:16:38;5.80;99.90
15341;DHT22;7770;52.158;5.372;2024-03-06T04:19:24;5.70;99.90
15341;DHT22;7770;52.158;5.372;2024-03-06T04:22:10;5.70;99.90
15341;DHT22;7770;52.158;5.372;2024-03-06T04:24:56;5.70;99.90
15341;DHT22;7770;52.158;5.372;2024-03-06T04:27:44;5.60;99.90
15341;DHT22;7770;52.158;5.372;2024-03-06T04:30:30;5.60;99.90
15341;DHT22;7770;52.158;5.372;2024-03-06T04:33:16;5.60;99.90
15341;DHT22;7770;52.158;5.372;2024-03-06T04:36:03;5.50;99.90
15341;DHT22;7770;52.158;5.372;2024-03-06T04:38:51;5.40;99.90
15341;DHT22;7770;52.158;5.372;2024-03-06T04:41:37;5.40;99.90
15341;DHT22;7770;52.158;5.372;2024-03-06T04:44:23;5.30;99.90
15341;DHT22;7770;52.158;5.372;2024-03-06T04:47:09;5.40;99.90
15341;DHT22;7770;52.158;5.372;2024-03-06T04:49:55;5.40;99.90
15341;DHT22;7770;52.158;5.372;2024-03-06T04:52:41;5.40;99.90
15341;DHT22;7770;52.158;5.372;2024-03-06T04:55:27;5.30;99.90
15341;DHT22;7770;52.158;5.372;2024-03-06T04:58:13;5.30;99.90
15341;DHT22;7770;52.158;5.372;2024-03-06T05:00:59;5.20;99.90
15341;DHT22;7770;52.158;5.372;2024-03-06T05:03:45;5.20;99.90
15341;DHT22;7770;52.158;5.372;2024-03-06T05:06:31;5.20;99.90
15341;DHT22;7770;52.158;5.372;2024-03-06T05:09:17;5.10;99.90
15341;DHT22;7770;52.158;5.372;2024-03-06T05:12:03;5.10;99.90
15341;DHT22;7770;52.158;5.372;2024-03-06T05:14:52;5.00;99.90
15341;DHT22;7770;52.158;5.372;2024-03-06T05:17:38;5.10;99.90
15341;DHT22;7770;52.158;5.372;2024-03-06T05:20:24;5.20;99.90
15341;DHT22;7770;52.158;5.372;2024-03-06T05:23:10;5.20;99.90
15341;DHT22;7770;52.158;5.372;2024-03-06T05:25:56;5.20;99.90
15341;DHT22;7770;52.158;5.372;2024-03-06T05:28:42;5.10;99.90
15341;DHT22;7770;52.158;5.372;2024-03-06T05:31:28;5.00;99.90
15341;DHT22;7770;52.158;5.372;2024-03-06T05:34:14;5.00;99.90
15341;DHT22;7770;52.158;5.372;2024-03-06T05:37:01;4.90;99.90
15341;DHT22;7770;52.158;5.372;2024-03-06T05:39:49;4.80;99.90
15341;DHT22;7770;52.158;5.372;2024-03-06T05:42:35;4.80;99.90
15341;DHT22;7770;52.158;5.372;2024-03-06T05:45:21;4.70;99.90
15341;DHT22;7770;52.158;5.372;2024-03-06T05:48:07;4.70;99.90
15341;DHT22;7770;52.158;5.372;2024-03-06T05:50:54;4.60;99.90
15341;DHT22;7770;52.158;5.372;2024-03-06T05:53:40;4.60;99.90
15341;DHT22;7770;52.158;5.372;2024-03-06T05:56:28;4.60;99.90
15341;DHT22;7770;52.158;5.372;2024-03-06T05:59:14;4.50;99.90
15341;DHT22;7770;52.158;5.372;2024-03-06T06:02:01;4.50;99.90
15341;DHT22;7770;52.158;5.372;2024-03-06T06:04:47;4.50;99.90
15341;DHT22;7770;52.158;5.372;2024-03-06T06:07:33;4.40;99.90
15341;DHT22;7770;52.158;5.372;2024-03-06T06:10:19;4.40;99.90
15341;DHT22;7770;52.158;5.372;2024-03-06T06:13:05;4.40;99.90
15341;DHT22;7770;52.158;5.372;2024-03-06T06:15:51;4.40;99.90
15341;DHT22;7770;52.158;5.372;2024-03-06T06:18:39;4.30;99.90
15341;DHT22;7770;52.158;5.372;2024-03-06T06:21:27;4.30;99.90
15341;DHT22;7770;52.158;5.372;2024-03-06T06:24:13;4.20;99.90
15341;DHT22;7770;52.158;5.372;2024-03-06T06:27:00;4.20;99.90
15341;DHT22;7770;52.158;5.372;2024-03-06T06:29:46;4.20;99.90
15341;DHT22;7770;52.158;5.372;2024-03-06T06:32:32;4.10;99.90
15341;DHT22;7770;52.158;5.372;2024-03-06T06:35:18;4.00;99.90
15341;DHT22;7770;52.158;5.372;2024-03-06T06:38:04;4.00;99.90
15341;DHT22;7770;52.158;5.372;2024-03-06T06:40:50;4.00;99.90
15341;DHT22;7770;52.158;5.372;2024-03-06T06:43:37;4.00;99.90
15341;DHT22;7770;52.158;5.372;2024-03-06T06:46:23;4.10;99.90
15341;DHT22;7770;52.158;5.372;2024-03-06T06:49:09;4.10;99.90
15341;DHT22;7770;52.158;5.372;2024-03-06T06:51:55;4.10;99.90
15341;DHT22;7770;52.158;5.372;2024-03-06T06:54:41;4.10;99.90
15341;DHT22;7770;52.158;5.372;2024-03-06T06:57:27;4.10;99.90
15341;DHT22;7770;52.158;5.372;2024-03-06T07:00:13;4.10;99.90
15341;DHT22;7770;52.158;5.372;2024-03-06T07:03:02;4.10;99.90
15341;DHT22;7770;52.158;5.372;2024-03-06T07:05:49;4.10;99.90
15341;DHT22;7770;52.158;5.372;2024-03-06T07:08:35;4.20;99.90
15341;DHT22;7770;52.158;5.372;2024-03-06T07:11:21;4.20;99.90
15341;DHT22;7770;52.158;5.372;2024-03-06T07:14:07;4.30;99.90
15341;DHT22;7770;52.158;5.372;2024-03-06T07:16:53;4.30;99.90
15341;DHT22;7770;52.158;5.372;2024-03-06T07:19:39;4.40;99.90
15341;DHT22;7770;52.158;5.372;2024-03-06T07:22:25;4.40;99.90
15341;DHT22;7770;52.158;5.372;2024-03-06T07:25:11;4.50;99.90
15341;DHT22;7770;52.158;5.372;2024-03-06T07:27:57;4.40;99.90
15341;DHT22;7770;52.158;5.372;2024-03-06T07:30:43;4.50;99.90
15341;DHT22;7770;52.158;5.372;2024-03-06T07:33:31;4.60;99.90
15341;DHT22;7770;52.158;5.372;2024-03-06T07:36:20;4.70;99.90
15341;DHT22;7770;52.158;5.372;2024-03-06T07:39:07;4.80;99.90
15341;DHT22;7770;52.158;5.372;2024-03-06T07:41:54;5.00;99.90
15341;DHT22;7770;52.158;5.372;2024-03-06T07:44:40;5.00;99.90
15341;DHT22;7770;52.158;5.372;2024-03-06T07:47:26;5.10;99.90
15341;DHT22;7770;52.158;5.372;2024-03-06T07:50:12;5.20;99.90
15341;DHT22;7770;52.158;5.372;2024-03-06T07:53:04;5.30;99.90
15341;DHT22;7770;52.158;5.372;2024-03-06T07:55:51;5.60;99.90
15341;DHT22;7770;52.158;5.372;2024-03-06T07:58:37;5.70;99.90
15341;DHT22;7770;52.158;5.372;2024-03-06T08:01:23;5.80;99.90
15341;DHT22;7770;52.158;5.372;2024-03-06T08:04:09;5.90;99.90
15341;DHT22;7770;52.158;5.372;2024-03-06T08:06:55;6.10;99.90
15341;DHT22;7770;52.158;5.372;2024-03-06T08:09:41;6.20;99.90
15341;DHT22;7770;52.158;5.372;2024-03-06T08:12:28;6.20;99.90
15341;DHT22;7770;52.158;5.372;2024-03-06T08:15:14;6.20;99.90
15341;DHT22;7770;52.158;5.372;2024-03-06T08:18:00;6.00;99.90
15341;DHT22;7770;52.158;5.372;2024-03-06T08:20:47;6.00;99.90
15341;DHT22;7770;52.158;5.372;2024-03-06T08:23:32;6.00;99.90
15341;DHT22;7770;52.158;5.372;2024-03-06T08:26:19;6.00;99.90
15341;DHT22;7770;52.158;5.372;2024-03-06T08:29:05;6.00;99.90
15341;DHT22;7770;52.158;5.372;2024-03-06T08:31:51;6.00;99.90
15341;DHT22;7770;52.158;5.372;2024-03-06T08:34:37;6.00;99.90
15341;DHT22;7770;52.158;5.372;2024-03-06T08:37:23;6.20;99.90
15341;DHT22;7770;52.158;5.372;2024-03-06T08:40:10;6.40;99.90
15341;DHT22;7770;52.158;5.372;2024-03-06T08:43:00;6.70;99.90
15341;DHT22;7770;52.158;5.372;2024-03-06T08:45:46;6.60;99.90
15341;DHT22;7770;52.158;5.372;2024-03-06T08:48:32;6.50;99.90
15341;DHT22;7770;52.158;5.372;2024-03-06T08:51:18;6.40;99.90
15341;DHT22;7770;52.158;5.372;2024-03-06T08:54:04;6.50;99.90
15341;DHT22;7770;52.158;5.372;2024-03-06T08:56:50;6.40;99.90
15341;DHT22;7770;52.158;5.372;2024-03-06T08:59:39;6.50;99.90
15341;DHT22;7770;52.158;5.372;2024-03-06T09:02:25;6.50;99.90
15341;DHT22;7770;52.158;5.372;2024-03-06T09:05:11;6.70;99.90
15341;DHT22;7770;52.158;5.372;2024-03-06T09:07:58;6.70;99.90
15341;DHT22;7770;52.158;5.372;2024-03-06T09:10:44;6.80;99.90
15341;DHT22;7770;52.158;5.372;2024-03-06T09:13:30;6.90;99.90
15341;DHT22;7770;52.158;5.372;2024-03-06T09:16:16;7.10;99.90
15341;DHT22;7770;52.158;5.372;2024-03-06T09:19:03;7.20;99.90
15341;DHT22;7770;52.158;5.372;2024-03-06T09:21:49;7.30;99.90
15341;DHT22;7770;52.158;5.372;2024-03-06T09:24:35;7.40;99.90
15341;DHT22;7770;52.158;5.372;2024-03-06T09:27:23;7.40;99.90
15341;DHT22;7770;52.158;5.372;2024-03-06T09:30:10;7.50;99.90
15341;DHT22;7770;52.158;5.372;2024-03-06T09:32:58;7.80;99.90
15341;DHT22;7770;52.158;5.372;2024-03-06T09:35:44;7.90;99.90
15341;DHT22;7770;52.158;5.372;2024-03-06T09:38:30;8.00;99.90
15341;DHT22;7770;52.158;5.372;2024-03-06T09:41:17;8.30;99.90
15341;DHT22;7770;52.158;5.372;2024-03-06T09:44:03;8.40;99.90
15341;DHT22;7770;52.158;5.372;2024-03-06T09:46:49;8.50;99.90
15341;DHT22;7770;52.158;5.372;2024-03-06T09:49:36;8.40;99.90
15341;DHT22;7770;52.158;5.372;2024-03-06T09:52:24;8.60;99.90
15341;DHT22;7770;52.158;5.372;2024-03-06T09:55:10;8.80;99.90
15341;DHT22;7770;52.158;5.372;2024-03-06T09:57:56;8.90;99.90
15341;DHT22;7770;52.158;5.372;2024-03-06T10:00:42;8.90;99.90
15341;DHT22;7770;52.158;5.372;2024-03-06T10:03:29;8.90;99.90
15341;DHT22;7770;52.158;5.372;2024-03-06T10:06:15;9.00;99.90
15341;DHT22;7770;52.158;5.372;2024-03-06T10:09:04;9.30;99.90
15341;DHT22;7770;52.158;5.372;2024-03-06T10:11:54;9.40;99.90
15341;DHT22;7770;52.158;5.372;2024-03-06T10:14:49;9.80;99.90
15341;DHT22;7770;52.158;5.372;2024-03-06T10:17:36;10.10;99.90
15341;DHT22;7770;52.158;5.372;2024-03-06T10:20:24;10.40;99.90
15341;DHT22;7770;52.158;5.372;2024-03-06T10:23:10;10.70;99.90
15341;DHT22;7770;52.158;5.372;2024-03-06T10:25:56;11.40;99.90
15341;DHT22;7770;52.158;5.372;2024-03-06T10:28:45;11.60;99.90
15341;DHT22;7770;52.158;5.372;2024-03-06T10:31:31;12.30;99.90
15341;DHT22;7770;52.158;5.372;2024-03-06T10:34:17;12.80;99.90
15341;DHT22;7770;52.158;5.372;2024-03-06T10:37:03;13.90;99.90
15341;DHT22;7770;52.158;5.372;2024-03-06T10:39:52;14.10;99.90
15341;DHT22;7770;52.158;5.372;2024-03-06T10:42:40;14.50;99.90
15341;DHT22;7770;52.158;5.372;2024-03-06T10:48:30;15.50;99.90
15341;DHT22;7770;52.158;5.372;2024-03-06T10:51:17;15.30;99.90
15341;DHT22;7770;52.158;5.372;2024-03-06T10:54:04;15.80;99.90
15341;DHT22;7770;52.158;5.372;2024-03-06T10:56:50;16.20;99.90
15341;DHT22;7770;52.158;5.372;2024-03-06T10:59:37;16.50;99.90
15341;DHT22;7770;52.158;5.372;2024-03-06T11:02:24;16.20;99.90
15341;DHT22;7770;52.158;5.372;2024-03-06T11:05:10;16.10;99.90
15341;DHT22;7770;52.158;5.372;2024-03-06T11:07:56;16.20;99.90
15341;DHT22;7770;52.158;5.372;2024-03-06T11:10:44;16.20;99.90
15341;DHT22;7770;52.158;5.372;2024-03-06T11:13:31;14.60;99.90
15341;DHT22;7770;52.158;5.372;2024-03-06T11:16:27;14.20;99.90
15341;DHT22;7770;52.158;5.372;2024-03-06T11:19:14;14.50;99.90
15341;DHT22;7770;52.158;5.372;2024-03-06T11:22:00;14.30;99.90
15341;DHT22;7770;52.158;5.372;2024-03-06T11:24:47;14.40;99.90
15341;DHT22;7770;52.158;5.372;2024-03-06T11:27:33;14.90;99.90
15341;DHT22;7770;52.158;5.372;2024-03-06T11:30:26;15.80;99.90
15341;DHT22;7770;52.158;5.372;2024-03-06T11:33:15;16.40;99.90
15341;DHT22;7770;52.158;5.372;2024-03-06T11:36:23;15.60;99.90
15341;DHT22;7770;52.158;5.372;2024-03-06T11:39:16;15.70;99.90
15341;DHT22;7770;52.158;5.372;2024-03-06T11:42:04;15.80;99.90
15341;DHT22;7770;52.158;5.372;2024-03-06T11:44:54;15.30;99.90
15341;DHT22;7770;52.158;5.372;2024-03-06T11:48:00;15.30;99.90
15341;DHT22;7770;52.158;5.372;2024-03-06T11:50:47;15.10;99.90
15341;DHT22;7770;52.158;5.372;2024-03-06T11:53:34;15.00;99.90
15341;DHT22;7770;52.158;5.372;2024-03-06T11:56:21;14.80;99.90
15341;DHT22;7770;52.158;5.372;2024-03-06T11:59:07;14.90;99.90
15341;DHT22;7770;52.158;5.372;2024-03-06T12:01:56;15.20;99.90
15341;DHT22;7770;52.158;5.372;2024-03-06T12:04:43;15.40;99.90
15341;DHT22;7770;52.158;5.372;2024-03-06T12:07:29;15.60;99.90
15341;DHT22;7770;52.158;5.372;2024-03-06T12:10:19;15.30;99.90
15341;DHT22;7770;52.158;5.372;2024-03-06T12:13:05;15.20;99.90
15341;DHT22;7770;52.158;5.372;2024-03-06T12:15:51;15.10;99.90
15341;DHT22;7770;52.158;5.372;2024-03-06T12:18:37;15.60;99.90
15341;DHT22;7770;52.158;5.372;2024-03-06T12:21:28;16.10;99.90
15341;DHT22;7770;52.158;5.372;2024-03-06T12:24:17;16.40;99.90
15341;DHT22;7770;52.158;5.372;2024-03-06T12:27:07;15.70;99.90
15341;DHT22;7770;52.158;5.372;2024-03-06T12:29:53;15.30;99.90
15341;DHT22;7770;52.158;5.372;2024-03-06T12:32:40;15.30;99.90
15341;DHT22;7770;52.158;5.372;2024-03-06T12:35:27;15.50;99.90
15341;DHT22;7770;52.158;5.372;2024-03-06T12:38:14;14.90;99.90
15341;DHT22;7770;52.158;5.372;2024-03-06T12:41:00;14.40;99.90
15341;DHT22;7770;52.158;5.372;2024-03-06T12:43:46;14.70;99.90
15341;DHT22;7770;52.158;5.372;2024-03-06T12:46:33;14.70;99.90
15341;DHT22;7770;52.158;5.372;2024-03-06T12:49:19;15.00;99.90
15341;DHT22;7770;52.158;5.372;2024-03-06T12:52:05;15.10;99.90
15341;DHT22;7770;52.158;5.372;2024-03-06T12:54:51;14.60;99.90
15341;DHT22;7770;52.158;5.372;2024-03-06T12:57:37;14.00;99.90
15341;DHT22;7770;52.158;5.372;2024-03-06T13:00:24;14.10;99.90
15341;DHT22;7770;52.158;5.372;2024-03-06T13:03:10;13.60;99.90
15341;DHT22;7770;52.158;5.372;2024-03-06T13:05:56;13.40;99.90
15341;DHT22;7770;52.158;5.372;2024-03-06T13:08:42;13.20;99.90
15341;DHT22;7770;52.158;5.372;2024-03-06T13:11:28;13.30;99.90
15341;DHT22;7770;52.158;5.372;2024-03-06T13:14:14;13.30;99.90
15341;DHT22;7770;52.158;5.372;2024-03-06T13:17:00;13.40;99.90
15341;DHT22;7770;52.158;5.372;2024-03-06T13:19:46;13.40;99.90
15341;DHT22;7770;52.158;5.372;2024-03-06T13:22:33;13.40;99.90
15341;DHT22;7770;52.158;5.372;2024-03-06T13:25:18;13.30;99.90
15341;DHT22;7770;52.158;5.372;2024-03-06T13:28:05;12.80;99.90
15341;DHT22;7770;52.158;5.372;2024-03-06T13:30:51;12.60;99.90
15341;DHT22;7770;52.158;5.372;2024-03-06T13:33:37;12.50;99.90
15341;DHT22;7770;52.158;5.372;2024-03-06T13:36:23;12.60;99.90
15341;DHT22;7770;52.158;5.372;2024-03-06T13:39:09;13.00;99.90
15341;DHT22;7770;52.158;5.372;2024-03-06T13:41:55;13.00;99.90
15341;DHT22;7770;52.158;5.372;2024-03-06T13:44:41;13.10;99.90
15341;DHT22;7770;52.158;5.372;2024-03-06T13:47:27;12.70;99.90
15341;DHT22;7770;52.158;5.372;2024-03-06T13:50:15;12.70;99.90
15341;DHT22;7770;52.158;5.372;2024-03-06T13:53:01;12.50;99.90
15341;DHT22;7770;52.158;5.372;2024-03-06T13:55:47;12.30;99.90
15341;DHT22;7770;52.158;5.372;2024-03-06T13:58:33;12.20;99.90
15341;DHT22;7770;52.158;5.372;2024-03-06T14:01:19;12.10;99.90
15341;DHT22;7770;52.158;5.372;2024-03-06T14:04:05;12.00;99.90
15341;DHT22;7770;52.158;5.372;2024-03-06T14:06:51;11.70;99.90
15341;DHT22;7770;52.158;5.372;2024-03-06T14:09:38;11.50;99.90
15341;DHT22;7770;52.158;5.372;2024-03-06T14:12:24;11.40;99.90
15341;DHT22;7770;52.158;5.372;2024-03-06T14:15:10;11.30;99.90
15341;DHT22;7770;52.158;5.372;2024-03-06T14:18:00;11.20;99.90
15341;DHT22;7770;52.158;5.372;2024-03-06T14:20:47;11.30;99.90
15341;DHT22;7770;52.158;5.372;2024-03-06T14:23:33;11.30;99.90
15341;DHT22;7770;52.158;5.372;2024-03-06T14:26:20;11.30;99.90
15341;DHT22;7770;52.158;5.372;2024-03-06T14:29:06;11.20;99.90
15341;DHT22;7770;52.158;5.372;2024-03-06T14:31:53;11.10;99.90
15341;DHT22;7770;52.158;5.372;2024-03-06T14:34:40;11.10;99.90
15341;DHT22;7770;52.158;5.372;2024-03-06T14:37:26;11.10;99.90
15341;DHT22;7770;52.158;5.372;2024-03-06T14:40:12;11.10;99.90
15341;DHT22;7770;52.158;5.372;2024-03-06T14:42:58;11.10;99.90
15341;DHT22;7770;52.158;5.372;2024-03-06T14:45:47;11.10;99.90
15341;DHT22;7770;52.158;5.372;2024-03-06T14:48:33;11.10;99.90
15341;DHT22;7770;52.158;5.372;2024-03-06T14:51:19;11.20;99.90
15341;DHT22;7770;52.158;5.372;2024-03-06T14:54:05;11.30;99.90
15341;DHT22;7770;52.158;5.372;2024-03-06T14:56:52;11.30;99.90
15341;DHT22;7770;52.158;5.372;2024-03-06T14:59:38;11.40;99.90
15341;DHT22;7770;52.158;5.372;2024-03-06T15:02:24;11.40;99.90
15341;DHT22;7770;52.158;5.372;2024-03-06T15:05:10;11.40;99.90
15341;DHT22;7770;52.158;5.372;2024-03-06T15:07:57;11.30;99.90
15341;DHT22;7770;52.158;5.372;2024-03-06T15:10:44;11.40;99.90
15341;DHT22;7770;52.158;5.372;2024-03-06T15:13:30;11.40;99.90
15341;DHT22;7770;52.158;5.372;2024-03-06T15:16:16;11.40;99.90
15341;DHT22;7770;52.158;5.372;2024-03-06T15:19:03;11.40;99.90
15341;DHT22;7770;52.158;5.372;2024-03-06T15:21:49;11.30;99.90
15341;DHT22;7770;52.158;5.372;2024-03-06T15:24:35;11.30;99.90
15341;DHT22;7770;52.158;5.372;2024-03-06T15:27:21;11.20;99.90
15341;DHT22;7770;52.158;5.372;2024-03-06T15:30:09;11.10;99.90
15341;DHT22;7770;52.158;5.372;2024-03-06T15:32:55;10.90;99.90
15341;DHT22;7770;52.158;5.372;2024-03-06T15:35:41;10.90;99.90
15341;DHT22;7770;52.158;5.372;2024-03-06T15:38:27;10.90;99.90
15341;DHT22;7770;52.158;5.372;2024-03-06T15:41:13;10.80;99.90
15341;DHT22;7770;52.158;5.372;2024-03-06T15:43:59;10.80;99.90
15341;DHT22;7770;52.158;5.372;2024-03-06T15:46:45;10.70;99.90
15341;DHT22;7770;52.158;5.372;2024-03-06T15:49:32;10.80;99.90
15341;DHT22;7770;52.158;5.372;2024-03-06T15:52:18;10.70;99.90
15341;DHT22;7770;52.158;5.372;2024-03-06T15:55:08;10.80;99.90
15341;DHT22;7770;52.158;5.372;2024-03-06T15:57:55;10.80;99.90
15341;DHT22;7770;52.158;5.372;2024-03-06T16:00:41;10.80;99.90
15341;DHT22;7770;52.158;5.372;2024-03-06T16:03:27;10.80;99.90
15341;DHT22;7770;52.158;5.372;2024-03-06T16:06:13;10.80;99.90
15341;DHT22;7770;52.158;5.372;2024-03-06T16:08:59;10.90;99.90
15341;DHT22;7770;52.158;5.372;2024-03-06T16:11:46;10.90;99.90
15341;DHT22;7770;52.158;5.372;2024-03-06T16:14:32;10.90;99.90
15341;DHT22;7770;52.158;5.372;2024-03-06T16:17:18;10.90;99.90
15341;DHT22;7770;52.158;5.372;2024-03-06T16:20:05;10.90;99.90
15341;DHT22;7770;52.158;5.372;2024-03-06T16:22:52;10.80;99.90
15341;DHT22;7770;52.158;5.372;2024-03-06T16:25:38;10.80;99.90
15341;DHT22;7770;52.158;5.372;2024-03-06T16:28:24;10.70;99.90
15341;DHT22;7770;52.158;5.372;2024-03-06T16:31:10;10.70;99.90
15341;DHT22;7770;52.158;5.372;2024-03-06T16:33:57;10.60;99.90
15341;DHT22;7770;52.158;5.372;2024-03-06T16:36:43;10.60;99.90
15341;DHT22;7770;52.158;5.372;2024-03-06T16:39:28;10.60;99.90
15341;DHT22;7770;52.158;5.372;2024-03-06T16:42:15;10.50;99.90
15341;DHT22;7770;52.158;5.372;2024-03-06T16:45:02;10.40;99.90
15341;DHT22;7770;52.158;5.372;2024-03-06T16:47:48;10.30;99.90
15341;DHT22;7770;52.158;5.372;2024-03-06T16:50:37;10.20;99.90
15341;DHT22;7770;52.158;5.372;2024-03-06T16:53:23;10.10;99.90
15341;DHT22;7770;52.158;5.372;2024-03-06T16:56:09;10.10;99.90
15341;DHT22;7770;52.158;5.372;2024-03-06T16:58:56;10.00;99.90
15341;DHT22;7770;52.158;5.372;2024-03-06T17:01:42;10.00;99.90
15341;DHT22;7770;52.158;5.372;2024-03-06T17:04:28;10.00;99.90
15341;DHT22;7770;52.158;5.372;2024-03-06T17:07:14;10.10;99.90
15341;DHT22;7770;52.158;5.372;2024-03-06T17:10:00;10.10;99.90
15341;DHT22;7770;52.158;5.372;2024-03-06T17:12:46;10.10;99.90
15341;DHT22;7770;52.158;5.372;2024-03-06T17:15:32;10.00;99.90
15341;DHT22;7770;52.158;5.372;2024-03-06T17:18:18;9.90;99.90
15341;DHT22;7770;52.158;5.372;2024-03-06T17:21:05;9.80;99.90
15341;DHT22;7770;52.158;5.372;2024-03-06T17:23:54;9.70;99.90
15341;DHT22;7770;52.158;5.372;2024-03-06T17:26:40;9.70;99.90
15341;DHT22;7770;52.158;5.372;2024-03-06T17:29:26;9.60;99.90
15341;DHT22;7770;52.158;5.372;2024-03-06T17:32:12;9.50;99.90
15341;DHT22;7770;52.158;5.372;2024-03-06T17:34:59;9.50;99.90
15341;DHT22;7770;52.158;5.372;2024-03-06T17:37:46;9.50;99.90
15341;DHT22;7770;52.158;5.372;2024-03-06T17:40:32;9.40;99.90
15341;DHT22;7770;52.158;5.372;2024-03-06T17:43:18;9.40;99.90
15341;DHT22;7770;52.158;5.372;2024-03-06T17:46:04;9.30;99.90
15341;DHT22;7770;52.158;5.372;2024-03-06T17:48:51;9.20;99.90
15341;DHT22;7770;52.158;5.372;2024-03-06T17:51:37;9.20;99.90
15341;DHT22;7770;52.158;5.372;2024-03-06T17:54:25;9.10;99.90
15341;DHT22;7770;52.158;5.372;2024-03-06T17:57:11;9.00;99.90
15341;DHT22;7770;52.158;5.372;2024-03-06T17:59:57;9.00;99.90
15341;DHT22;7770;52.158;5.372;2024-03-06T18:02:44;9.00;99.90